Time;durP1;ratioP1;P1;durP2;ratioP2;P2;SDS_P1;SDS_P2;PMS_P1;PMS_P2;Temp;Humidity;BMP_temperature;BMP_pressure;BME280_temperature;BME280_humidity;BME280_pressure;Samples;Min_cycle;Max_cycle;Signal;HPM_P1;HPM_P2
2021/05/18 00:01:38;;;;;;;15.20;12.17;;;11.60;99.90;;;;;;5189148;28;20198;-74
2021/05/18 00:04:10;;;;;;;17.47;12.20;;;11.60;99.90;;;;;;5187852;28;20231;-72
2021/05/18 00:06:43;;;;;;;17.77;11.87;;;11.60;99.90;;;;;;5187346;28;20245;-72
2021/05/18 00:12:06;;;;;;;16.60;12.20;;;11.60;99.90;;;;;;5187186;28;20713;-74
2021/05/18 00:14:38;;;;;;;16.00;12.00;;;11.60;99.90;;;;;;5186953;28;20218;-74
2021/05/18 00:17:10;;;;;;;14.73;11.00;;;11.60;99.90;;;;;;5186783;28;20217;-74
2021/05/18 00:19:42;;;;;;;18.20;12.93;;;11.60;99.90;;;;;;5186849;28;20564;-73
2021/05/18 00:22:14;;;;;;;14.40;11.60;;;11.60;99.90;;;;;;5186521;28;20226;-74
2021/05/18 00:24:45;;;;;;;16.17;12.00;;;11.60;99.90;;;;;;5186594;28;20198;-74
2021/05/18 00:27:19;;;;;;;16.23;11.30;;;11.60;99.90;;;;;;5186852;28;20218;-76
2021/05/18 00:29:52;;;;;;;19.33;12.53;;;11.60;99.90;;;;;;5191511;28;20217;-73
2021/05/18 00:32:25;;;;;;;17.17;11.90;;;11.60;99.90;;;;;;5191066;28;20198;-73
2021/05/18 00:34:58;;;;;;;18.43;12.13;;;11.60;99.90;;;;;;5191413;28;20231;-75
2021/05/18 00:37:30;;;;;;;19.90;13.53;;;11.60;99.90;;;;;;5191701;28;20198;-74
2021/05/18 00:40:04;;;;;;;17.60;12.90;;;11.60;99.90;;;;;;5191371;28;20213;-74
2021/05/18 00:42:48;;;;;;;16.43;12.57;;;11.60;99.90;;;;;;5190949;28;20186;-75
2021/05/18 00:45:35;;;;;;;18.67;13.13;;;11.60;99.90;;;;;;5191491;28;20190;-75
2021/05/18 00:48:09;;;;;;;19.10;13.43;;;11.60;99.90;;;;;;5190948;28;20203;-75
2021/05/18 00:50:43;;;;;;;19.13;14.47;;;11.60;99.90;;;;;;5190819;28;20194;-75
2021/05/18 00:53:16;;;;;;;19.47;14.07;;;11.60;99.90;;;;;;5190792;28;20270;-75
2021/05/18 00:58:44;;;;;;;21.23;16.07;;;11.60;99.90;;;;;;5148317;28;20208;-73
2021/05/18 01:01:19;;;;;;;19.60;15.83;;;11.60;99.90;;;;;;5148300;28;20208;-74
2021/05/18 01:03:52;;;;;;;21.73;16.30;;;11.60;99.90;;;;;;5148344;28;20239;-72
2021/05/18 01:12:44;;;;;;;25.43;19.83;;;11.60;99.90;;;;;;5148545;28;20568;-72
2021/05/18 01:15:15;;;;;;;37.23;23.30;;;11.60;99.90;;;;;;5148209;28;20618;-72
2021/05/18 01:17:47;;;;;;;29.60;21.60;;;11.60;99.90;;;;;;5148141;28;20207;-73
2021/05/18 01:20:20;;;;;;;30.57;22.40;;;11.60;99.90;;;;;;5147909;28;20192;-73
2021/05/18 01:22:52;;;;;;;31.67;23.90;;;11.60;99.90;;;;;;5147996;28;20208;-73
2021/05/18 01:29:09;;;;;;;38.57;25.87;;;11.60;99.90;;;;;;5147814;28;20193;-72
2021/05/18 01:31:43;;;;;;;36.67;27.00;;;11.70;99.90;;;;;;5147896;28;20197;-76
2021/05/18 01:34:15;;;;;;;39.93;28.23;;;11.60;99.90;;;;;;5147705;28;20221;-72
2021/05/18 01:36:48;;;;;;;40.20;28.43;;;11.70;99.90;;;;;;5187231;28;20206;-72
2021/05/18 01:44:42;;;;;;;38.97;29.10;;;11.70;99.90;;;;;;5190178;28;20218;-75
2021/05/18 01:47:14;;;;;;;42.20;31.23;;;11.70;99.90;;;;;;5190370;28;20642;-72
2021/05/18 01:49:47;;;;;;;39.03;30.57;;;11.70;99.90;;;;;;5190242;28;20231;-73
2021/05/18 01:52:19;;;;;;;43.80;31.50;;;11.70;99.90;;;;;;5189990;28;20204;-73
2021/05/18 01:54:52;;;;;;;45.20;31.77;;;11.60;99.90;;;;;;5190190;28;20575;-72
2021/05/18 01:57:26;;;;;;;43.10;30.80;;;11.60;99.90;;;;;;5190131;28;20187;-73
2021/05/18 01:59:58;;;;;;;43.03;30.53;;;11.60;99.90;;;;;;5190267;28;20566;-72
2021/05/18 02:02:30;;;;;;;43.03;32.13;;;11.60;99.90;;;;;;5190097;28;20213;-72
2021/05/18 02:05:12;;;;;;;41.80;30.67;;;11.50;99.90;;;;;;5189322;28;20272;-72
2021/05/18 02:07:47;;;;;;;39.87;30.67;;;11.50;99.90;;;;;;5190243;28;20191;-74
2021/05/18 02:10:20;;;;;;;43.83;30.63;;;11.50;99.90;;;;;;5190069;28;20533;-72
2021/05/18 02:12:55;;;;;;;41.63;31.50;;;11.50;99.90;;;;;;5189820;28;20199;-73
2021/05/18 02:21:29;;;;;;;36.30;27.53;;;11.50;99.90;;;;;;5189700;28;20636;-72
2021/05/18 02:27:58;;;;;;;34.73;26.83;;;11.50;99.90;;;;;;5189418;28;20232;-71
2021/05/18 02:30:30;;;;;;;36.10;25.87;;;11.50;99.90;;;;;;5189784;28;20666;-72
2021/05/18 02:33:03;;;;;;;34.47;24.47;;;11.50;99.90;;;;;;5172879;28;20274;-72
2021/05/18 02:35:35;;;;;;;33.00;22.63;;;11.50;99.90;;;;;;5189330;28;20226;-72
2021/05/18 02:38:07;;;;;;;30.67;22.07;;;11.50;99.90;;;;;;5189337;28;20199;-72
2021/05/18 02:50:05;;;;;;;27.27;19.00;;;11.50;99.90;;;;;;5189803;28;20582;-73
2021/05/18 02:52:39;;;;;;;30.37;19.60;;;11.50;99.90;;;;;;5189509;28;20206;-73
2021/05/18 02:55:27;;;;;;;25.90;19.00;;;11.50;99.90;;;;;;5188518;28;20222;-72
2021/05/18 02:57:59;;;;;;;27.57;17.97;;;11.50;99.90;;;;;;5188264;28;20187;-73
2021/05/18 03:00:31;;;;;;;25.43;17.70;;;11.60;99.90;;;;;;5188782;28;20199;-73
2021/05/18 03:03:04;;;;;;;23.03;17.50;;;11.60;99.90;;;;;;5188988;28;20377;-73
2021/05/18 03:05:36;;;;;;;22.37;15.37;;;11.50;99.90;;;;;;5188461;28;20234;-72
2021/05/18 03:08:08;;;;;;;20.00;15.70;;;11.60;99.90;;;;;;5188343;28;20209;-73
2021/05/18 03:10:40;;;;;;;21.37;15.77;;;11.50;99.90;;;;;;5187805;28;20191;-72
2021/05/18 03:13:12;;;;;;;22.20;15.87;;;11.60;99.90;;;;;;5187906;28;20198;-73
2021/05/18 03:15:44;;;;;;;24.73;17.00;;;11.60;99.90;;;;;;5188975;28;20219;-73
2021/05/18 03:18:16;;;;;;;24.87;17.53;;;11.60;99.90;;;;;;5188899;28;20187;-73
2021/05/18 03:20:48;;;;;;;21.97;17.10;;;11.60;99.90;;;;;;5189009;28;20548;-72
2021/05/18 03:23:20;;;;;;;23.77;16.43;;;11.60;99.90;;;;;;5188750;28;20188;-72
2021/05/18 03:25:52;;;;;;;20.63;15.67;;;11.60;99.90;;;;;;5189400;28;20195;-75
2021/05/18 03:28:24;;;;;;;21.10;15.67;;;11.60;99.90;;;;;;5189211;28;20199;-74
2021/05/18 03:36:21;;;;;;;21.93;14.60;;;11.50;99.90;;;;;;5187930;28;20201;-74
2021/05/18 03:38:56;;;;;;;19.00;13.60;;;11.50;99.90;;;;;;5187532;28;20195;-74
2021/05/18 03:41:31;;;;;;;19.83;14.23;;;11.50;99.90;;;;;;5187588;28;20198;-73
2021/05/18 03:44:22;;;;;;;20.73;14.57;;;11.50;99.90;;;;;;5187504;28;20618;-73
2021/05/18 03:52:22;;;;;;;18.37;13.73;;;11.50;99.90;;;;;;5187649;28;20195;-71
2021/05/18 04:04:33;;;;;;;17.07;12.93;;;11.50;99.90;;;;;;5187214;28;20701;-73
2021/05/18 04:12:49;;;;;;;18.80;12.07;;;11.40;99.90;;;;;;5187603;28;20195;-73
2021/05/18 04:18:16;;;;;;;15.63;12.10;;;11.40;99.90;;;;;;5187242;28;20187;-71
2021/05/18 04:38:32;;;;;;;13.97;10.07;;;11.40;99.90;;;;;;5164459;28;20200;-74
2021/05/18 05:06:52;;;;;;;9.70;7.80;;;11.60;99.90;;;;;;5186725;28;20190;-71
2021/05/18 05:09:38;;;;;;;10.57;7.30;;;11.60;99.90;;;;;;5186573;28;20657;-70
2021/05/18 05:14:52;;;;;;;13.47;6.70;;;11.70;99.90;;;;;;5125998;28;20232;-69
2021/05/18 05:17:24;;;;;;;11.07;7.40;;;11.70;99.90;;;;;;5127286;29;20209;-72
2021/05/18 05:19:57;;;;;;;8.70;6.87;;;11.70;99.90;;;;;;5127299;29;20595;-69
2021/05/18 05:22:29;;;;;;;8.60;6.13;;;11.70;99.90;;;;;;5127334;29;20209;-68
2021/05/18 05:28:47;;;;;;;7.60;5.97;;;11.80;99.90;;;;;;5127329;29;20298;-71
2021/05/18 05:31:19;;;;;;;9.30;5.83;;;11.70;99.90;;;;;;5184291;28;20569;-68
2021/05/18 05:33:51;;;;;;;8.60;5.67;;;11.80;99.90;;;;;;5188396;28;20193;-69
2021/05/18 05:36:23;;;;;;;7.50;6.13;;;11.70;99.90;;;;;;5188922;28;20230;-69
2021/05/18 05:39:02;;;;;;;8.73;5.63;;;11.80;99.90;;;;;;5189438;28;20202;-72
2021/05/18 05:45:20;;;;;;;7.93;5.77;;;11.70;99.90;;;;;;5189045;28;20218;-70
2021/05/18 05:47:52;;;;;;;9.80;6.30;;;11.70;99.90;;;;;;5188940;28;20595;-69
2021/05/18 05:50:24;;;;;;;8.97;6.07;;;11.70;99.90;;;;;;5188711;28;20198;-70
2021/05/18 05:52:55;;;;;;;7.90;5.60;;;11.70;99.90;;;;;;5188797;28;20187;-71
2021/05/18 05:55:28;;;;;;;7.67;5.70;;;11.70;99.90;;;;;;5188626;28;20314;-70
2021/05/18 05:57:59;;;;;;;7.27;5.87;;;11.70;99.90;;;;;;5185844;28;20190;-71
2021/05/18 06:00:31;;;;;;;6.80;5.40;;;11.70;99.90;;;;;;5187925;28;20191;-69
2021/05/18 06:03:03;;;;;;;6.23;5.43;;;11.70;99.90;;;;;;5188840;28;20195;-70
2021/05/18 06:05:35;;;;;;;7.30;5.23;;;11.70;99.90;;;;;;5188594;28;20237;-69
2021/05/18 06:08:08;;;;;;;5.80;5.17;;;11.70;99.90;;;;;;5188441;28;20238;-68
2021/05/18 06:10:42;;;;;;;5.90;4.67;;;11.80;99.90;;;;;;5188640;28;20199;-70
2021/05/18 06:36:49;;;;;;;6.00;4.50;;;11.90;99.90;;;;;;5188171;28;20225;-68
2021/05/18 06:47:47;;;;;;;7.20;4.53;;;11.90;99.90;;;;;;5188303;28;20221;-66
2021/05/18 06:52:51;;;;;;;6.60;4.30;;;12.00;99.90;;;;;;5190848;28;20200;-69
2021/05/18 07:02:30;;;;;;;7.37;4.87;;;12.30;99.90;;;;;;5189245;28;20210;-70
2021/05/18 07:05:06;;;;;;;8.43;5.50;;;12.30;99.90;;;;;;5188495;28;20239;-68
2021/05/18 07:07:38;;;;;;;8.57;5.87;;;12.30;99.90;;;;;;5188239;28;20221;-69
2021/05/18 07:10:10;;;;;;;7.57;4.70;;;12.40;99.90;;;;;;5188104;28;20556;-71
2021/05/18 07:16:28;;;;;;;4.87;3.73;;;12.50;99.90;;;;;;5187394;28;20217;-69
2021/05/18 07:19:00;;;;;;;4.63;3.43;;;12.50;99.90;;;;;;5188186;28;20222;-69
2021/05/18 07:21:32;;;;;;;7.90;3.13;;;12.50;99.90;;;;;;5189370;28;20203;-68
2021/05/18 07:24:09;;;;;;;3.53;3.23;;;12.60;99.90;;;;;;5188673;28;20187;-71
2021/05/18 07:26:41;;;;;;;4.63;3.00;;;12.60;99.90;;;;;;5187849;28;20199;-68
2021/05/18 07:29:13;;;;;;;6.87;3.30;;;12.60;99.90;;;;;;5188310;28;20607;-70
2021/05/18 07:31:45;;;;;;;4.17;2.73;;;12.60;99.90;;;;;;5187347;28;20195;-68
2021/05/18 07:34:17;;;;;;;4.60;3.17;;;12.60;99.90;;;;;;5187716;28;20191;-70
2021/05/18 07:36:49;;;;;;;4.03;2.60;;;12.60;99.90;;;;;;5185931;28;20222;-70
2021/05/18 07:39:21;;;;;;;4.07;2.80;;;12.60;99.90;;;;;;5186972;28;20573;-68
2021/05/18 07:41:53;;;;;;;4.10;2.90;;;12.60;99.90;;;;;;5186895;28;20206;-67
2021/05/18 07:44:25;;;;;;;4.33;2.97;;;12.70;99.90;;;;;;5185531;28;20210;-70
2021/05/18 07:46:57;;;;;;;3.47;2.73;;;12.80;99.90;;;;;;5185704;28;20231;-68
2021/05/18 08:06:32;;;;;;;4.90;3.33;;;13.00;99.90;;;;;;5055197;29;20609;-70
2021/05/18 08:09:04;;;;;;;6.40;3.90;;;13.00;99.90;;;;;;5063922;29;20580;-71
2021/05/18 08:11:36;;;;;;;5.70;3.53;;;13.00;99.90;;;;;;5049221;29;20355;-70
2021/05/18 08:14:08;;;;;;;7.67;3.80;;;13.10;99.90;;;;;;5061663;29;20266;-70
2021/05/18 08:17:17;;;;;;;5.03;2.50;;;13.20;99.90;;;;;;5063513;29;20784;-70
2021/05/18 10:17:25;;;;;;;6.00;2.30;;;14.00;99.90;;;;;;5188192;28;20249;-69
2021/05/18 10:35:38;;;;;;;6.97;2.97;;;13.90;99.90;;;;;;5187977;28;20526;-68
2021/05/18 10:38:16;;;;;;;4.10;2.57;;;13.80;99.90;;;;;;5187102;28;20194;-67
2021/05/18 10:40:50;;;;;;;8.93;2.70;;;13.80;99.90;;;;;;5188245;28;20637;-68
2021/05/18 10:43:28;;;;;;;6.00;2.40;;;13.70;99.90;;;;;;5187569;28;20199;-68
2021/05/18 10:46:12;;;;;;;3.93;3.07;;;13.70;99.90;;;;;;5186205;28;20245;-67
2021/05/18 10:48:52;;;;;;;5.47;2.50;;;13.70;99.90;;;;;;5183806;28;20229;-70
2021/05/18 10:51:44;;;;;;;5.87;2.23;;;13.80;99.90;;;;;;5181263;28;20202;-71
2021/05/18 10:54:40;;;;;;;4.30;2.20;;;13.70;99.90;;;;;;5187292;28;20203;-70
2021/05/18 11:01:08;;;;;;;4.40;2.93;;;13.70;99.90;;;;;;5187438;28;20265;-70
2021/05/18 11:03:40;;;;;;;7.30;3.33;;;13.70;99.90;;;;;;5188273;28;20209;-73
2021/05/18 11:06:12;;;;;;;5.93;3.60;;;13.80;99.90;;;;;;5187979;28;20283;-71
2021/05/18 11:08:44;;;;;;;7.57;4.13;;;13.80;99.90;;;;;;5187471;28;20229;-71
2021/05/18 11:11:26;;;;;;;7.60;4.67;;;13.80;99.90;;;;;;5186009;28;20199;-71
2021/05/18 11:17:55;;;;;;;9.80;3.63;;;13.80;99.90;;;;;;5186809;28;20301;-71
2021/05/18 11:23:31;;;;;;;7.00;3.90;;;13.70;99.90;;;;;;5187013;28;20234;-72
2021/05/18 11:26:08;;;;;;;5.70;4.00;;;13.70;99.90;;;;;;5187345;28;20191;-69
2021/05/18 11:28:44;;;;;;;6.53;3.50;;;13.70;99.90;;;;;;5180407;28;20191;-70
2021/05/18 11:31:21;;;;;;;5.63;3.80;;;13.60;99.90;;;;;;5184433;28;20285;-70
2021/05/18 11:33:56;;;;;;;6.67;3.93;;;13.60;99.90;;;;;;5186964;28;20202;-72
2021/05/18 11:36:35;;;;;;;7.27;4.17;;;13.50;99.90;;;;;;5186643;28;20223;-72
2021/05/18 11:39:11;;;;;;;5.83;3.80;;;13.50;99.90;;;;;;5186526;28;20234;-72
2021/05/18 11:41:45;;;;;;;6.47;3.53;;;13.50;99.90;;;;;;5187227;28;20608;-70
2021/05/18 11:44:18;;;;;;;8.23;4.00;;;13.50;99.90;;;;;;5186553;28;20230;-72
2021/05/18 11:46:58;;;;;;;8.47;4.07;;;13.40;99.90;;;;;;5165640;28;20201;-73
2021/05/18 11:49:34;;;;;;;7.70;4.90;;;13.30;99.90;;;;;;5173448;28;20198;-73
2021/05/18 11:52:06;;;;;;;6.03;3.90;;;13.30;99.90;;;;;;5185531;28;20561;-70
2021/05/18 11:54:40;;;;;;;8.23;4.87;;;13.20;99.90;;;;;;5186461;28;20217;-73
2021/05/18 11:57:12;;;;;;;6.70;4.83;;;13.20;99.90;;;;;;5185254;28;20253;-74
2021/05/18 11:59:44;;;;;;;8.03;4.50;;;13.10;99.90;;;;;;5187447;28;20190;-70
2021/05/18 12:02:20;;;;;;;8.47;3.90;;;13.10;99.90;;;;;;5187440;28;20195;-75
2021/05/18 12:05:04;;;;;;;6.40;3.60;;;13.10;99.90;;;;;;5188143;28;20244;-74
2021/05/18 12:07:36;;;;;;;6.93;3.63;;;13.10;99.90;;;;;;5187642;28;20259;-72
2021/05/18 12:10:08;;;;;;;6.50;4.27;;;13.00;99.90;;;;;;5188155;28;20278;-74
2021/05/18 12:12:40;;;;;;;7.70;4.17;;;13.00;99.90;;;;;;5187509;28;20650;-72
2021/05/18 12:15:13;;;;;;;6.97;5.00;;;12.90;99.90;;;;;;5187735;28;20789;-76
2021/05/18 12:17:45;;;;;;;8.90;5.43;;;12.90;99.90;;;;;;5186793;28;20265;-73
2021/05/18 12:20:17;;;;;;;10.30;5.07;;;13.00;99.90;;;;;;5186801;28;20195;-74
2021/05/18 12:22:51;;;;;;;7.23;5.10;;;13.00;99.90;;;;;;5186195;28;20222;-73
2021/05/18 12:25:31;;;;;;;9.17;6.07;;;13.00;99.90;;;;;;5185116;28;20650;-73
2021/05/18 12:31:50;;;;;;;7.37;5.17;;;13.00;99.90;;;;;;5186122;28;20194;-72
2021/05/18 12:34:30;;;;;;;7.20;5.43;;;13.00;99.90;;;;;;5186275;28;20564;-67
2021/05/18 12:37:02;;;;;;;7.33;5.27;;;13.10;99.90;;;;;;5185181;28;20214;-68
2021/05/18 12:39:37;;;;;;;7.53;5.30;;;13.00;99.90;;;;;;5185733;28;20226;-68
2021/05/18 12:42:24;;;;;;;7.23;5.40;;;13.00;99.90;;;;;;5184706;28;20290;-69
2021/05/18 12:48:44;;;;;;;6.40;4.73;;;13.10;99.90;;;;;;5185644;28;20270;-67
2021/05/18 12:51:25;;;;;;;8.03;4.40;;;13.10;99.90;;;;;;5186263;28;20566;-69
2021/05/18 12:54:05;;;;;;;6.13;4.20;;;13.20;99.90;;;;;;5187350;28;20194;-69
2021/05/18 12:56:37;;;;;;;7.03;4.57;;;13.20;99.90;;;;;;5187951;28;20556;-71
2021/05/18 12:59:12;;;;;;;6.73;4.27;;;13.30;99.90;;;;;;5186548;28;20294;-69
2021/05/18 13:01:46;;;;;;;5.80;4.10;;;13.20;99.90;;;;;;5186851;28;20238;-68
2021/05/18 13:04:19;;;;;;;6.30;4.13;;;13.20;99.90;;;;;;5187549;28;20235;-71
2021/05/18 13:06:51;;;;;;;5.23;3.23;;;13.20;99.90;;;;;;5187342;28;20688;-69
2021/05/18 13:09:26;;;;;;;7.40;3.60;;;13.30;99.90;;;;;;5186507;28;20618;-70
2021/05/18 13:12:15;;;;;;;6.33;4.40;;;13.30;99.90;;;;;;5185924;28;20187;-67
2021/05/18 13:14:58;;;;;;;4.83;3.73;;;13.30;99.90;;;;;;5185846;28;20213;-70
2021/05/18 13:17:31;;;;;;;7.10;4.20;;;13.30;99.90;;;;;;5184963;28;20766;-67
2021/05/18 13:20:13;;;;;;;6.23;4.13;;;13.30;99.90;;;;;;5185495;28;20199;-69
2021/05/18 13:22:49;;;;;;;6.90;4.37;;;13.40;99.90;;;;;;5185811;28;20191;-69
2021/05/18 13:28:12;;;;;;;6.13;4.00;;;13.40;99.90;;;;;;5186168;28;20198;-69
2021/05/18 13:30:48;;;;;;;7.57;4.43;;;13.30;99.90;;;;;;5185609;28;20282;-68
2021/05/18 13:33:20;;;;;;;5.77;4.10;;;13.30;99.90;;;;;;5185649;28;20233;-68
2021/05/18 13:35:51;;;;;;;4.70;3.83;;;13.30;99.90;;;;;;5188127;28;20547;-69
2021/05/18 13:38:24;;;;;;;7.03;3.90;;;13.30;99.90;;;;;;5185937;28;20225;-67
2021/05/18 13:40:55;;;;;;;6.40;4.63;;;13.30;99.90;;;;;;5189115;28;20191;-68
2021/05/18 13:43:27;;;;;;;8.90;4.77;;;13.30;99.90;;;;;;5189828;28;20206;-68
2021/05/18 13:45:59;;;;;;;6.83;4.57;;;13.30;99.90;;;;;;5188132;28;20199;-69
2021/05/18 13:48:32;;;;;;;6.40;4.70;;;13.30;99.90;;;;;;5189381;28;20199;-69
2021/05/18 13:51:05;;;;;;;5.50;4.73;;;13.30;99.90;;;;;;5189357;28;20194;-69
2021/05/18 13:53:51;;;;;;;7.83;4.63;;;13.30;99.90;;;;;;5191730;28;20613;-69
2021/05/18 13:56:24;;;;;;;6.10;4.40;;;13.20;99.90;;;;;;5192139;28;20620;-66
2021/05/18 14:02:44;;;;;;;8.33;4.43;;;13.30;99.90;;;;;;5189837;28;20214;-69
2021/05/18 14:05:19;;;;;;;6.87;4.27;;;13.30;99.90;;;;;;5189954;28;20242;-65
2021/05/18 14:10:59;;;;;;;6.87;4.70;;;13.30;99.90;;;;;;5188828;28;20290;-68
2021/05/18 14:13:36;;;;;;;6.43;4.73;;;13.30;99.90;;;;;;5188821;28;20202;-66
2021/05/18 14:19:54;;;;;;;9.40;5.60;;;13.30;99.90;;;;;;5188392;28;20190;-69
2021/05/18 14:22:26;;;;;;;12.50;6.33;;;13.40;99.90;;;;;;5187526;28;20230;-67
2021/05/18 14:27:39;;;;;;;8.67;5.80;;;13.30;99.90;;;;;;5188440;28;20190;-69
2021/05/18 14:30:15;;;;;;;7.47;5.47;;;13.30;99.90;;;;;;5188159;28;20195;-68
2021/05/18 14:32:48;;;;;;;8.43;6.00;;;13.30;99.90;;;;;;5188566;28;20226;-69
2021/05/18 14:35:20;;;;;;;10.63;6.63;;;13.30;99.90;;;;;;5188496;28;20199;-66
2021/05/18 14:37:57;;;;;;;8.67;6.17;;;13.30;99.90;;;;;;5188374;28;20253;-68
2021/05/18 14:46:20;;;;;;;8.47;6.80;;;13.20;99.90;;;;;;5187945;28;20191;-71
2021/05/18 14:57:12;;;;;;;8.23;5.67;;;13.10;99.90;;;;;;5187686;28;20235;-67
2021/05/18 15:03:32;;;;;;;7.20;5.30;;;13.00;99.90;;;;;;5187741;28;20221;-69
2021/05/18 15:06:04;;;;;;;10.03;6.60;;;13.00;99.90;;;;;;5187250;28;20245;-70
2021/05/18 15:08:37;;;;;;;11.37;6.60;;;13.10;99.90;;;;;;5187229;28;20199;-67
2021/05/18 15:11:09;;;;;;;8.63;5.80;;;13.00;99.90;;;;;;5187287;28;20209;-70
2021/05/18 15:13:41;;;;;;;6.77;5.40;;;13.00;99.90;;;;;;5187164;28;20195;-68
2021/05/18 15:20:00;;;;;;;6.03;4.27;;;13.10;99.90;;;;;;5186814;28;20233;-69
2021/05/18 15:22:32;;;;;;;8.87;5.13;;;13.10;99.90;;;;;;5186865;28;20191;-70
2021/05/18 15:25:05;;;;;;;9.40;5.27;;;13.10;99.90;;;;;;5185788;28;20191;-71
2021/05/18 15:27:38;;;;;;;7.00;5.17;;;13.00;99.90;;;;;;5187034;28;20233;-69
2021/05/18 15:30:11;;;;;;;8.07;5.50;;;13.00;99.90;;;;;;5186617;28;20663;-72
2021/05/18 15:32:43;;;;;;;8.93;5.47;;;13.00;99.90;;;;;;5186783;28;20203;-69
2021/05/18 15:35:15;;;;;;;8.33;5.50;;;12.90;99.90;;;;;;5186749;28;20709;-71
2021/05/18 15:37:47;;;;;;;7.70;5.40;;;12.80;99.90;;;;;;5186234;28;20219;-70
2021/05/18 15:40:20;;;;;;;7.80;6.60;;;12.80;99.90;;;;;;5186653;28;20269;-69
2021/05/18 15:42:52;;;;;;;7.93;6.10;;;12.80;99.90;;;;;;5186679;28;20195;-71
2021/05/18 15:45:23;;;;;;;9.63;6.63;;;12.80;99.90;;;;;;5186566;28;20635;-70
2021/05/18 15:47:55;;;;;;;11.23;7.00;;;12.70;99.90;;;;;;5174913;28;20195;-69
2021/05/18 15:50:27;;;;;;;9.53;7.80;;;12.70;99.90;;;;;;5185814;28;20649;-69
2021/05/18 15:53:00;;;;;;;10.30;7.67;;;12.80;99.90;;;;;;5186742;28;20198;-70
2021/05/18 15:55:32;;;;;;;13.00;8.23;;;12.80;99.90;;;;;;5186301;28;20191;-70
2021/05/18 15:58:05;;;;;;;11.43;7.83;;;12.80;99.90;;;;;;5186191;28;20234;-72
2021/05/18 16:00:37;;;;;;;11.83;9.20;;;12.70;99.90;;;;;;5186787;28;20191;-69
2021/05/18 16:03:09;;;;;;;12.27;8.73;;;12.70;99.90;;;;;;5184910;28;20191;-70
2021/05/18 16:05:41;;;;;;;10.83;8.47;;;12.70;99.90;;;;;;5185538;28;20323;-67
2021/05/18 16:11:06;;;;;;;12.40;8.97;;;12.60;99.90;;;;;;5185970;28;20195;-70
2021/05/18 16:13:39;;;;;;;14.20;8.97;;;12.60;99.90;;;;;;5185182;28;20226;-68
2021/05/18 16:16:15;;;;;;;12.70;9.00;;;12.60;99.90;;;;;;5184929;28;20190;-68
2021/05/18 16:18:47;;;;;;;12.13;7.30;;;12.60;99.90;;;;;;5185078;28;20573;-69
2021/05/18 16:21:20;;;;;;;9.57;6.37;;;12.50;99.90;;;;;;5185922;28;20195;-68
2021/05/18 16:23:55;;;;;;;8.53;5.57;;;12.50;99.90;;;;;;5186095;28;20600;-69
2021/05/18 16:26:32;;;;;;;7.83;4.83;;;12.40;99.90;;;;;;5183245;28;20226;-68
2021/05/18 16:29:05;;;;;;;7.37;5.00;;;12.30;99.90;;;;;;5184588;28;20582;-75
2021/05/18 16:31:37;;;;;;;7.77;4.80;;;12.30;99.90;;;;;;5185308;28;20288;-72
2021/05/18 16:34:10;;;;;;;8.90;4.73;;;12.30;99.90;;;;;;5185317;28;20214;-69
2021/05/18 16:36:42;;;;;;;7.00;4.97;;;12.20;99.90;;;;;;5184775;28;20191;-73
2021/05/18 16:39:15;;;;;;;8.27;5.37;;;12.20;99.90;;;;;;5183628;28;20261;-75
2021/05/18 16:41:47;;;;;;;6.97;5.00;;;12.20;99.90;;;;;;5185342;28;20195;-70
2021/05/18 16:44:20;;;;;;;7.77;5.10;;;12.20;99.90;;;;;;5185027;28;20206;-67
2021/05/18 16:46:53;;;;;;;11.43;5.07;;;12.20;99.90;;;;;;5185802;28;20219;-71
2021/05/18 16:49:25;;;;;;;7.43;4.83;;;12.10;99.90;;;;;;5183169;28;20282;-66
2021/05/18 16:51:58;;;;;;;11.27;5.37;;;12.00;99.90;;;;;;5184818;28;20205;-72
2021/05/18 16:54:30;;;;;;;6.13;4.80;;;12.00;99.90;;;;;;5184704;28;20206;-74
2021/05/18 16:57:11;;;;;;;9.33;5.53;;;11.90;99.90;;;;;;5183481;28;20507;-74
2021/05/18 16:59:43;;;;;;;8.27;5.20;;;11.90;99.90;;;;;;5183588;28;20230;-69
2021/05/18 17:02:16;;;;;;;9.80;5.23;;;11.90;99.90;;;;;;5184733;28;20520;-72
2021/05/18 17:04:49;;;;;;;10.23;5.63;;;11.80;99.90;;;;;;5185006;28;20653;-73
2021/05/18 17:07:21;;;;;;;7.70;5.37;;;11.80;99.90;;;;;;5185190;28;20201;-68
2021/05/18 17:09:54;;;;;;;7.33;4.30;;;11.80;99.90;;;;;;5185513;28;20195;-69
2021/05/18 17:12:26;;;;;;;6.13;4.20;;;11.70;99.90;;;;;;5188449;28;20191;-69
2021/05/18 17:14:58;;;;;;;6.27;3.87;;;11.70;99.90;;;;;;5188472;28;20195;-70
2021/05/18 17:17:32;;;;;;;6.37;3.37;;;11.70;99.90;;;;;;5188112;28;20214;-69
2021/05/18 17:20:05;;;;;;;4.47;3.30;;;11.70;99.90;;;;;;5188015;28;20205;-68
2021/05/18 17:22:37;;;;;;;7.37;4.03;;;11.70;99.90;;;;;;5188290;28;20258;-69
2021/05/18 17:25:10;;;;;;;6.90;3.83;;;11.70;99.90;;;;;;5187685;28;20195;-67
2021/05/18 17:27:43;;;;;;;6.90;3.73;;;11.70;99.90;;;;;;5187714;28;20328;-68
2021/05/18 17:33:54;;;;;;;7.07;3.93;;;11.70;99.90;;;;;;5144299;28;20694;-69
2021/05/18 17:36:27;;;;;;;7.43;4.13;;;11.70;99.90;;;;;;5142325;28;20208;-71
2021/05/18 17:39:00;;;;;;;6.27;3.73;;;11.60;99.90;;;;;;5143143;28;20747;-72
2021/05/18 17:41:32;;;;;;;7.63;4.40;;;11.60;99.90;;;;;;5142949;28;20192;-72
2021/05/18 17:44:04;;;;;;;9.47;4.60;;;11.50;99.90;;;;;;5143475;28;20208;-72
2021/05/18 17:50:32;;;;;;;9.87;5.53;;;11.50;99.90;;;;;;5136845;28;20247;-70
2021/05/18 17:53:04;;;;;;;10.93;4.90;;;11.50;99.90;;;;;;5137044;28;20239;-68
2021/05/18 17:55:36;;;;;;;10.33;5.93;;;11.40;99.90;;;;;;5136458;28;20696;-70
2021/05/18 17:58:10;;;;;;;9.63;5.53;;;11.30;99.90;;;;;;5134223;28;20628;-72
2021/05/18 18:00:42;;;;;;;9.57;5.80;;;11.40;99.90;;;;;;5142283;28;20233;-69
2021/05/18 18:03:14;;;;;;;10.03;5.80;;;11.30;99.90;;;;;;5149141;28;20199;-67
2021/05/18 18:05:48;;;;;;;9.30;6.00;;;11.30;99.90;;;;;;5188060;28;20334;-69
2021/05/18 18:08:23;;;;;;;10.97;5.87;;;11.30;99.90;;;;;;5187342;28;20209;-71
2021/05/18 18:10:55;;;;;;;8.37;5.33;;;11.30;99.90;;;;;;5185990;28;20202;-72
2021/05/18 18:13:27;;;;;;;9.70;5.50;;;11.30;99.90;;;;;;5187272;28;20191;-72
2021/05/18 18:16:05;;;;;;;11.43;5.63;;;11.30;99.90;;;;;;5187429;28;20205;-73
2021/05/18 18:18:37;;;;;;;8.40;5.60;;;11.20;99.90;;;;;;5185611;28;20273;-69
2021/05/18 18:21:10;;;;;;;9.00;5.67;;;11.20;99.90;;;;;;5186404;28;20626;-70
2021/05/18 18:23:42;;;;;;;8.20;5.77;;;11.20;99.90;;;;;;5186773;28;20269;-67
2021/05/18 18:26:15;;;;;;;10.73;6.50;;;11.20;99.90;;;;;;5186793;28;20225;-73
2021/05/18 18:28:48;;;;;;;10.40;6.93;;;11.10;99.90;;;;;;5187145;28;20187;-74
2021/05/18 18:31:21;;;;;;;11.93;7.30;;;11.10;99.90;;;;;;5186316;28;20191;-70
2021/05/18 18:33:53;;;;;;;13.63;7.47;;;11.10;99.90;;;;;;5184869;28;20187;-71
2021/05/18 18:36:26;;;;;;;10.77;6.43;;;11.10;99.90;;;;;;5185845;28;20206;-70
2021/05/18 18:38:57;;;;;;;11.33;6.50;;;11.00;99.90;;;;;;5185879;28;20223;-72
2021/05/18 18:41:30;;;;;;;8.97;6.37;;;11.00;99.90;;;;;;5186427;28;20196;-69
2021/05/18 18:44:02;;;;;;;11.77;6.40;;;11.00;99.90;;;;;;5186390;28;20241;-73
2021/05/18 18:46:37;;;;;;;12.83;7.17;;;11.00;99.90;;;;;;5185207;28;20230;-69
2021/05/18 18:49:10;;;;;;;12.27;7.40;;;10.90;99.90;;;;;;5183897;28;20657;-73
2021/05/18 18:51:45;;;;;;;9.80;7.07;;;10.90;99.90;;;;;;5185770;28;20234;-66
2021/05/18 18:54:17;;;;;;;8.67;6.60;;;10.80;99.90;;;;;;5185147;28;20213;-69
2021/05/18 18:56:51;;;;;;;11.83;6.80;;;10.90;99.90;;;;;;5186480;28;20195;-68
2021/05/18 18:59:23;;;;;;;13.13;7.97;;;10.90;99.90;;;;;;5184756;28;20223;-67
2021/05/18 19:01:59;;;;;;;11.87;7.40;;;10.80;99.90;;;;;;5186908;28;20553;-72
2021/05/18 19:04:37;;;;;;;15.27;7.43;;;10.80;99.90;;;;;;5188662;28;20249;-73
2021/05/18 19:10:18;;;;;;;11.60;8.40;;;10.80;99.90;;;;;;5184918;28;20187;-70
2021/05/18 19:12:50;;;;;;;15.17;8.67;;;10.80;99.90;;;;;;5183017;28;20191;-72
2021/05/18 19:15:22;;;;;;;13.57;8.43;;;10.80;99.90;;;;;;5178673;28;20191;-69
2021/05/18 19:17:54;;;;;;;15.60;8.47;;;10.80;99.90;;;;;;5179775;28;20529;-69
2021/05/18 19:20:26;;;;;;;17.47;9.27;;;10.80;99.90;;;;;;5187495;28;20195;-70
2021/05/18 19:23:00;;;;;;;15.23;9.40;;;10.80;99.90;;;;;;5187859;28;20201;-71
2021/05/18 19:25:32;;;;;;;20.00;10.40;;;10.80;99.90;;;;;;5186970;28;20199;-68
2021/05/18 19:28:10;;;;;;;16.80;10.40;;;10.80;99.90;;;;;;5186725;28;20201;-68
2021/05/18 19:30:43;;;;;;;19.50;9.27;;;10.80;99.90;;;;;;5186870;28;20186;-70
2021/05/18 19:33:18;;;;;;;17.10;9.97;;;10.80;99.90;;;;;;5186078;28;20194;-70
2021/05/18 19:36:42;;;;;;;15.33;10.27;;;10.80;99.90;;;;;;5186378;28;20194;-70
2021/05/18 19:44:23;;;;;;;14.43;7.83;;;10.80;99.90;;;;;;5186156;28;20198;-69
2021/05/18 19:50:51;;;;;;;13.27;7.07;;;10.80;99.90;;;;;;5186049;28;20213;-70
2021/05/18 19:53:29;;;;;;;11.20;6.90;;;10.80;99.90;;;;;;5185969;28;20318;-69